createdAt,value
2024-04-13T00:00:59.159Z,17.50
2024-04-13T00:03:49.581Z,17.50
2024-04-13T00:06:42.619Z,17.50
2024-04-13T00:09:34.512Z,17.60
2024-04-13T00:12:22.154Z,17.60
2024-04-13T00:15:12.985Z,17.50
2024-04-13T00:18:01.163Z,17.50
2024-04-13T00:20:51.461Z,17.50
2024-04-13T00:23:41.800Z,17.40
2024-04-13T00:26:33.809Z,17.50
2024-04-13T00:29:21.824Z,17.50
2024-04-13T00:32:12.269Z,17.50
2024-04-13T00:34:59.901Z,17.50
2024-04-13T00:37:50.063Z,17.40
2024-04-13T00:40:40.355Z,17.30
2024-04-13T00:43:30.742Z,17.20
2024-04-13T00:46:24.879Z,17.10
2024-04-13T00:49:20.917Z,17.10
2024-04-13T00:52:12.593Z,17.20
2024-04-13T00:55:03.442Z,17.20
2024-04-13T00:57:53.916Z,17.20
2024-04-13T01:00:47.512Z,17.00
2024-04-13T01:03:37.102Z,17.00
2024-04-13T01:06:30.014Z,17.20
2024-04-13T01:09:17.907Z,17.20
2024-04-13T01:12:11.376Z,17.30
2024-04-13T01:15:02.233Z,17.30
2024-04-13T01:17:52.559Z,17.30
2024-04-13T01:20:41.160Z,17.30
2024-04-13T01:23:34.019Z,17.30
2024-04-13T01:26:24.946Z,17.30
2024-04-13T01:29:15.152Z,17.20
2024-04-13T01:32:02.819Z,17.30
2024-04-13T01:34:53.195Z,17.30
2024-04-13T01:37:42.702Z,17.30
2024-04-13T01:40:33.067Z,17.30
2024-04-13T01:43:23.527Z,17.40
2024-04-13T01:46:13.899Z,17.40
2024-04-13T01:49:01.670Z,17.40
2024-04-13T01:51:52.073Z,17.30
2024-04-13T01:54:39.702Z,17.30
2024-04-13T01:57:30.190Z,17.30
2024-04-13T02:00:23.625Z,17.30
2024-04-13T02:03:12.448Z,17.40
2024-04-13T02:06:06.266Z,17.40
2024-04-13T02:08:54.673Z,17.50
2024-04-13T02:11:45.076Z,17.50
2024-04-13T02:14:32.950Z,17.50
2024-04-13T02:17:25.884Z,17.50
2024-04-13T02:20:17.298Z,17.40
2024-04-13T02:23:09.162Z,17.30
2024-04-13T02:25:58.780Z,17.30
2024-04-13T02:28:49.104Z,17.30
2024-04-13T02:31:37.550Z,17.40
2024-04-13T02:34:30.497Z,17.40
2024-04-13T02:37:18.262Z,17.40
2024-04-13T02:40:10.593Z,17.40
2024-04-13T02:42:58.933Z,17.50
2024-04-13T02:45:49.271Z,17.40
2024-04-13T02:48:38.053Z,17.30
2024-04-13T02:51:31.553Z,17.30
2024-04-13T02:54:19.300Z,17.30
2024-04-13T02:57:09.523Z,17.30
2024-04-13T02:59:59.785Z,17.30
2024-04-13T03:02:50.111Z,17.30
2024-04-13T03:05:38.818Z,17.20
2024-04-13T03:08:32.355Z,17.20
2024-04-13T03:11:22.201Z,17.20
2024-04-13T03:14:12.787Z,17.20
2024-04-13T03:17:01.176Z,17.20
2024-04-13T03:19:51.520Z,17.20
2024-04-13T03:22:39.223Z,17.20
2024-04-13T03:25:33.224Z,17.10
2024-04-13T03:28:24.841Z,17.10
2024-04-13T03:31:15.135Z,17.10
2024-04-13T03:34:04.422Z,17.10
2024-04-13T03:36:54.719Z,17.00
2024-04-13T03:39:45.179Z,16.90
2024-04-13T03:42:38.768Z,16.90
2024-04-13T03:45:26.528Z,17.00
2024-04-13T03:48:17.038Z,17.00
2024-04-13T03:51:04.996Z,17.10
2024-04-13T03:53:55.263Z,17.10
2024-04-13T03:56:42.986Z,17.10
2024-04-13T03:59:35.881Z,17.10
2024-04-13T04:02:23.654Z,17.00
2024-04-13T04:05:13.925Z,16.90
2024-04-13T04:08:01.578Z,16.80
2024-04-13T04:10:51.993Z,16.80
2024-04-13T04:13:39.709Z,16.60
2024-04-13T04:16:32.814Z,16.60
2024-04-13T04:19:20.495Z,16.50
2024-04-13T04:22:11.207Z,16.50
2024-04-13T04:24:58.945Z,16.50
2024-04-13T04:27:49.806Z,16.40
2024-04-13T04:30:37.492Z,16.10
2024-04-13T04:33:30.567Z,15.90
2024-04-13T04:36:18.797Z,16.00
2024-04-13T04:39:10.180Z,16.00
2024-04-13T04:41:57.935Z,16.00
2024-04-13T04:44:48.308Z,16.20
2024-04-13T04:47:36.286Z,16.30
2024-04-13T04:50:29.258Z,16.30
2024-04-13T04:53:16.869Z,16.40
2024-04-13T04:56:07.674Z,16.50
2024-04-13T04:58:57.339Z,16.40
2024-04-13T05:01:47.608Z,16.40
2024-04-13T05:04:35.298Z,16.30
2024-04-13T05:07:28.873Z,16.40
2024-04-13T05:10:16.741Z,16.50
2024-04-13T05:13:08.079Z,16.50
2024-04-13T05:15:55.780Z,16.50
2024-04-13T05:18:46.195Z,16.60
2024-04-13T05:21:33.909Z,16.60
2024-04-13T05:24:26.855Z,16.60
2024-04-13T05:27:14.664Z,16.70
2024-04-13T05:30:06.307Z,16.70
2024-04-13T05:32:54.232Z,16.70
2024-04-13T05:35:44.567Z,16.70
2024-04-13T05:38:32.224Z,16.90
2024-04-13T05:41:25.146Z,16.80
2024-04-13T05:44:12.755Z,16.80
2024-04-13T05:47:03.066Z,16.90
2024-04-13T05:49:52.448Z,16.90
2024-04-13T05:52:43.762Z,16.90
2024-04-13T05:55:31.459Z,17.00
2024-04-13T05:58:24.399Z,16.90
2024-04-13T06:01:12.004Z,16.90
2024-04-13T06:04:02.366Z,16.90
2024-04-13T06:06:52.770Z,16.80
2024-04-13T06:09:40.586Z,16.90
2024-04-13T06:12:31.000Z,16.90
2024-04-13T06:15:21.568Z,16.90
2024-04-13T06:18:12.136Z,17.00
2024-04-13T06:21:03.773Z,17.00
2024-04-13T06:23:51.984Z,17.00
2024-04-13T06:26:42.247Z,17.00
2024-04-13T06:29:29.947Z,17.10
2024-04-13T06:32:23.365Z,17.30
2024-04-13T06:35:11.154Z,17.30
2024-04-13T06:40:49.381Z,17.40
2024-04-13T06:43:39.640Z,17.50
2024-04-13T06:49:20.780Z,17.70
2024-04-13T06:52:08.507Z,17.90
2024-04-13T06:54:58.707Z,18.00
2024-04-13T06:57:46.771Z,18.10
2024-04-13T07:00:37.323Z,18.30
2024-04-13T07:23:19.751Z,19.10
2024-04-13T07:26:09.988Z,19.10
2024-04-13T07:29:00.894Z,19.20
2024-04-13T07:31:48.552Z,19.30
2024-04-13T07:34:41.487Z,19.40
2024-04-13T07:37:29.193Z,19.50
2024-04-13T07:40:22.188Z,19.60
2024-04-13T09:22:31.770Z,21.50
2024-04-13T09:25:22.905Z,21.60
2024-04-13T09:28:14.034Z,21.70
2024-04-13T09:31:01.770Z,21.80
2024-04-13T09:33:52.956Z,21.90
2024-04-13T09:36:40.675Z,21.90
2024-04-13T09:39:33.691Z,22.00
2024-04-13T09:42:25.872Z,22.10
2024-04-13T09:45:16.486Z,22.10
2024-04-13T09:48:04.469Z,22.30
2024-04-13T09:50:54.791Z,22.40
2024-04-13T09:53:43.120Z,22.50
2024-04-13T09:56:37.116Z,22.50
2024-04-13T09:59:25.250Z,22.60
2024-04-13T10:02:15.697Z,22.70
2024-04-13T10:05:03.827Z,22.90
2024-04-13T10:07:55.214Z,23.00
2024-04-13T10:10:45.908Z,23.10
2024-04-13T10:13:42.784Z,23.20
2024-04-13T10:16:31.421Z,23.30
2024-04-13T10:19:21.720Z,23.40
2024-04-13T10:22:15.822Z,23.50
2024-04-13T10:25:17.893Z,23.60
2024-04-13T10:28:07.389Z,24.00
2024-04-13T10:31:01.001Z,23.70
2024-04-13T10:33:54.984Z,23.80
2024-04-13T10:39:36.345Z,23.80
2024-04-13T10:42:37.292Z,24.10
2024-04-13T10:45:26.827Z,24.20
2024-04-13T10:48:21.672Z,24.30
2024-04-13T10:51:13.893Z,25.00
2024-04-13T10:54:04.658Z,24.60
2024-04-13T11:02:41.359Z,24.90
2024-04-13T11:05:34.841Z,25.10
2024-04-13T11:08:24.887Z,25.20
2024-04-13T11:11:15.346Z,25.40
2024-04-13T11:14:03.022Z,25.40
2024-04-13T11:16:53.248Z,25.50
2024-04-13T11:19:41.288Z,25.70
2024-04-13T11:22:34.463Z,25.90
2024-04-13T11:33:51.890Z,26.70
2024-04-13T11:36:42.421Z,26.80
2024-04-13T11:39:34.342Z,27.00
2024-04-13T15:01:06.804Z,29.20
2024-04-13T15:03:59.976Z,29.10
2024-04-13T15:06:47.845Z,29.00
2024-04-13T15:09:38.635Z,28.90
2024-04-13T15:12:26.394Z,28.90
2024-04-13T15:15:18.642Z,28.70
2024-04-13T15:18:07.672Z,28.60
2024-04-13T15:21:00.577Z,28.40
2024-04-13T15:23:49.604Z,28.30
2024-04-13T15:26:39.987Z,28.20
2024-04-13T15:40:49.545Z,28.00
2024-04-13T15:43:39.730Z,28.00
2024-04-13T15:46:29.310Z,27.90
